sensor_id;sensor_type;location;lat;lon;timestamp;temperature;humidity
66522;SHT31;53349;53.538;8.584;2023-07-08T00:00:26;18.91;59.77
66522;SHT31;53349;53.538;8.584;2023-07-08T00:02:53;18.87;59.91
66522;SHT31;53349;53.538;8.584;2023-07-08T00:05:20;18.85;60.11
66522;SHT31;53349;53.538;8.584;2023-07-08T00:07:47;18.79;60.33
66522;SHT31;53349;53.538;8.584;2023-07-08T00:10:24;18.78;60.46
66522;SHT31;53349;53.538;8.584;2023-07-08T00:12:52;18.71;60.70
66522;SHT31;53349;53.538;8.584;2023-07-08T00:15:20;18.72;60.69
66522;SHT31;53349;53.538;8.584;2023-07-08T00:17:46;18.74;60.81
66522;SHT31;53349;53.538;8.584;2023-07-08T00:20:17;18.71;60.85
66522;SHT31;53349;53.538;8.584;2023-07-08T00:22:45;18.71;60.85
66522;SHT31;53349;53.538;8.584;2023-07-08T00:25:13;18.67;61.09
66522;SHT31;53349;53.538;8.584;2023-07-08T00:27:39;18.58;61.28
66522;SHT31;53349;53.538;8.584;2023-07-08T00:30:19;18.57;61.37
66522;SHT31;53349;53.538;8.584;2023-07-08T00:32:49;18.61;61.35
66522;SHT31;53349;53.538;8.584;2023-07-08T00:35:15;18.58;61.37
66522;SHT31;53349;53.538;8.584;2023-07-08T00:37:41;18.46;61.75
66522;SHT31;53349;53.538;8.584;2023-07-08T00:40:14;18.38;61.99
66522;SHT31;53349;53.538;8.584;2023-07-08T00:42:44;18.38;61.98
66522;SHT31;53349;53.538;8.584;2023-07-08T00:45:37;18.29;62.19
66522;SHT31;53349;53.538;8.584;2023-07-08T00:48:25;18.37;62.08
66522;SHT31;53349;53.538;8.584;2023-07-08T00:50:56;18.32;62.12
66522;SHT31;53349;53.538;8.584;2023-07-08T00:53:36;18.32;62.21
66522;SHT31;53349;53.538;8.584;2023-07-08T00:56:24;18.29;62.25
66522;SHT31;53349;53.538;8.584;2023-07-08T01:01:26;18.25;62.33
66522;SHT31;53349;53.538;8.584;2023-07-08T01:03:58;18.26;62.31
66522;SHT31;53349;53.538;8.584;2023-07-08T01:06:25;18.23;62.43
66522;SHT31;53349;53.538;8.584;2023-07-08T01:08:52;18.19;62.54
66522;SHT31;53349;53.538;8.584;2023-07-08T01:11:17;18.19;62.46
66522;SHT31;53349;53.538;8.584;2023-07-08T01:13:44;18.20;62.40
66522;SHT31;53349;53.538;8.584;2023-07-08T01:16:13;18.19;62.43
66522;SHT31;53349;53.538;8.584;2023-07-08T01:18:40;18.20;62.39
66522;SHT31;53349;53.538;8.584;2023-07-08T01:21:33;18.14;62.59
66522;SHT31;53349;53.538;8.584;2023-07-08T01:24:05;18.07;62.72
66522;SHT31;53349;53.538;8.584;2023-07-08T01:26:33;18.09;62.66
66522;SHT31;53349;53.538;8.584;2023-07-08T01:28:59;18.06;62.73
66522;SHT31;53349;53.538;8.584;2023-07-08T01:31:26;18.05;62.86
66522;SHT31;53349;53.538;8.584;2023-07-08T01:33:52;17.98;62.89
66522;SHT31;53349;53.538;8.584;2023-07-08T01:36:18;18.03;62.78
66522;SHT31;53349;53.538;8.584;2023-07-08T01:38:47;18.06;62.68
66522;SHT31;53349;53.538;8.584;2023-07-08T01:41:16;18.09;62.61
66522;SHT31;53349;53.538;8.584;2023-07-08T01:43:42;18.03;62.76
66522;SHT31;53349;53.538;8.584;2023-07-08T01:46:23;18.00;62.81
66522;SHT31;53349;53.538;8.584;2023-07-08T01:48:52;17.99;62.81
66522;SHT31;53349;53.538;8.584;2023-07-08T01:51:19;18.00;62.79
66522;SHT31;53349;53.538;8.584;2023-07-08T01:53:45;17.99;62.82
66522;SHT31;53349;53.538;8.584;2023-07-08T01:56:12;17.98;62.90
66522;SHT31;53349;53.538;8.584;2023-07-08T01:58:38;17.95;62.90
66522;SHT31;53349;53.538;8.584;2023-07-08T02:01:06;17.99;62.78
66522;SHT31;53349;53.538;8.584;2023-07-08T02:03:32;17.98;62.85
66522;SHT31;53349;53.538;8.584;2023-07-08T02:05:57;17.89;62.96
66522;SHT31;53349;53.538;8.584;2023-07-08T02:08:23;17.88;63.02
66522;SHT31;53349;53.538;8.584;2023-07-08T02:10:57;17.90;63.00
66522;SHT31;53349;53.538;8.584;2023-07-08T02:13:24;17.95;62.91
66522;SHT31;53349;53.538;8.584;2023-07-08T02:15:55;17.89;62.96
66522;SHT31;53349;53.538;8.584;2023-07-08T02:18:20;17.90;63.05
66522;SHT31;53349;53.538;8.584;2023-07-08T02:20:47;17.90;63.00
66522;SHT31;53349;53.538;8.584;2023-07-08T02:23:14;17.90;62.96
66522;SHT31;53349;53.538;8.584;2023-07-08T02:25:49;17.89;63.04
66522;SHT31;53349;53.538;8.584;2023-07-08T02:28:15;17.89;63.06
66522;SHT31;53349;53.538;8.584;2023-07-08T02:30:41;17.82;63.18
66522;SHT31;53349;53.538;8.584;2023-07-08T02:33:07;17.82;63.21
66522;SHT31;53349;53.538;8.584;2023-07-08T02:35:35;17.72;63.41
66522;SHT31;53349;53.538;8.584;2023-07-08T02:38:00;17.71;63.42
66522;SHT31;53349;53.538;8.584;2023-07-08T02:40:26;17.71;63.42
66522;SHT31;53349;53.538;8.584;2023-07-08T02:42:52;17.71;63.48
66522;SHT31;53349;53.538;8.584;2023-07-08T02:45:18;17.67;63.49
66522;SHT31;53349;53.538;8.584;2023-07-08T02:47:44;17.67;63.50
66522;SHT31;53349;53.538;8.584;2023-07-08T02:50:10;17.62;63.60
66522;SHT31;53349;53.538;8.584;2023-07-08T02:52:36;17.61;63.56
66522;SHT31;53349;53.538;8.584;2023-07-08T02:55:02;17.62;63.51
66522;SHT31;53349;53.538;8.584;2023-07-08T02:57:27;17.65;63.33
66522;SHT31;53349;53.538;8.584;2023-07-08T02:59:53;17.65;63.36
66522;SHT31;53349;53.538;8.584;2023-07-08T03:02:18;17.58;63.43
66522;SHT31;53349;53.538;8.584;2023-07-08T03:04:43;17.62;63.52
66522;SHT31;53349;53.538;8.584;2023-07-08T03:07:10;17.61;63.41
66522;SHT31;53349;53.538;8.584;2023-07-08T03:09:36;17.51;63.61
66522;SHT31;53349;53.538;8.584;2023-07-08T03:12:01;17.47;63.77
66522;SHT31;53349;53.538;8.584;2023-07-08T03:14:26;17.49;63.72
66522;SHT31;53349;53.538;8.584;2023-07-08T03:16:52;17.49;63.69
66522;SHT31;53349;53.538;8.584;2023-07-08T03:19:18;17.38;64.06
66522;SHT31;53349;53.538;8.584;2023-07-08T03:21:43;17.41;63.99
66522;SHT31;53349;53.538;8.584;2023-07-08T03:24:10;17.38;63.98
66522;SHT31;53349;53.538;8.584;2023-07-08T03:26:36;17.37;64.09
66522;SHT31;53349;53.538;8.584;2023-07-08T03:29:03;17.31;64.27
66522;SHT31;53349;53.538;8.584;2023-07-08T03:31:28;17.27;64.34
66522;SHT31;53349;53.538;8.584;2023-07-08T03:33:54;17.30;64.27
66522;SHT31;53349;53.538;8.584;2023-07-08T03:36:19;17.39;64.09
66522;SHT31;53349;53.538;8.584;2023-07-08T03:38:45;17.35;64.01
66522;SHT31;53349;53.538;8.584;2023-07-08T03:41:11;17.35;64.04
66522;SHT31;53349;53.538;8.584;2023-07-08T03:43:36;17.37;63.98
66522;SHT31;53349;53.538;8.584;2023-07-08T03:46:01;17.37;64.01
66522;SHT31;53349;53.538;8.584;2023-07-08T03:48:27;17.32;64.04
66522;SHT31;53349;53.538;8.584;2023-07-08T03:50:54;17.39;63.95
66522;SHT31;53349;53.538;8.584;2023-07-08T03:53:19;17.44;63.77
66522;SHT31;53349;53.538;8.584;2023-07-08T03:55:46;17.62;63.37
66522;SHT31;53349;53.538;8.584;2023-07-08T03:58:11;17.72;63.08
66522;SHT31;53349;53.538;8.584;2023-07-08T04:00:37;17.85;62.69
66522;SHT31;53349;53.538;8.584;2023-07-08T04:03:03;18.07;62.25
66522;SHT31;53349;53.538;8.584;2023-07-08T04:05:29;18.40;61.45
66522;SHT31;53349;53.538;8.584;2023-07-08T04:07:55;18.68;60.77
66522;SHT31;53349;53.538;8.584;2023-07-08T04:10:20;18.92;60.27
66522;SHT31;53349;53.538;8.584;2023-07-08T04:12:47;19.02;59.78
66522;SHT31;53349;53.538;8.584;2023-07-08T04:15:13;19.22;59.39
66522;SHT31;53349;53.538;8.584;2023-07-08T04:17:43;19.40;58.80
66522;SHT31;53349;53.538;8.584;2023-07-08T04:20:13;19.53;58.54
66522;SHT31;53349;53.538;8.584;2023-07-08T04:22:40;19.62;58.12
66522;SHT31;53349;53.538;8.584;2023-07-08T04:25:06;19.70;57.94
66522;SHT31;53349;53.538;8.584;2023-07-08T04:27:31;19.87;57.65
66522;SHT31;53349;53.538;8.584;2023-07-08T04:29:56;20.07;56.95
66522;SHT31;53349;53.538;8.584;2023-07-08T04:32:22;20.14;56.71
66522;SHT31;53349;53.538;8.584;2023-07-08T04:34:47;20.27;56.57
66522;SHT31;53349;53.538;8.584;2023-07-08T04:37:12;20.41;56.21
66522;SHT31;53349;53.538;8.584;2023-07-08T04:39:37;20.55;55.75
66522;SHT31;53349;53.538;8.584;2023-07-08T04:42:03;20.55;55.68
66522;SHT31;53349;53.538;8.584;2023-07-08T04:44:29;20.62;55.44
66522;SHT31;53349;53.538;8.584;2023-07-08T04:46:57;20.59;55.60
66522;SHT31;53349;53.538;8.584;2023-07-08T04:49:24;20.38;56.00
66522;SHT31;53349;53.538;8.584;2023-07-08T04:51:50;20.28;56.55
66522;SHT31;53349;53.538;8.584;2023-07-08T04:54:18;20.22;56.76
66522;SHT31;53349;53.538;8.584;2023-07-08T04:56:48;20.16;57.00
66522;SHT31;53349;53.538;8.584;2023-07-08T04:59:16;20.04;57.45
66522;SHT31;53349;53.538;8.584;2023-07-08T05:01:43;19.96;57.69
66522;SHT31;53349;53.538;8.584;2023-07-08T05:04:12;19.90;58.06
66522;SHT31;53349;53.538;8.584;2023-07-08T05:06:37;19.94;58.03
66522;SHT31;53349;53.538;8.584;2023-07-08T05:09:04;20.10;57.77
66522;SHT31;53349;53.538;8.584;2023-07-08T05:11:30;20.22;57.42
66522;SHT31;53349;53.538;8.584;2023-07-08T05:13:57;20.45;56.97
66522;SHT31;53349;53.538;8.584;2023-07-08T05:16:25;20.56;56.86
66522;SHT31;53349;53.538;8.584;2023-07-08T05:18:51;20.68;56.38
66522;SHT31;53349;53.538;8.584;2023-07-08T05:21:18;20.68;56.46
66522;SHT31;53349;53.538;8.584;2023-07-08T05:23:46;20.69;56.59
66522;SHT31;53349;53.538;8.584;2023-07-08T05:26:11;20.78;56.59
66522;SHT31;53349;53.538;8.584;2023-07-08T05:28:38;20.95;56.37
66522;SHT31;53349;53.538;8.584;2023-07-08T05:31:03;21.10;56.03
66522;SHT31;53349;53.538;8.584;2023-07-08T05:33:30;21.28;55.56
66522;SHT31;53349;53.538;8.584;2023-07-08T05:35:56;21.55;55.09
66522;SHT31;53349;53.538;8.584;2023-07-08T05:38:24;21.71;54.56
66522;SHT31;53349;53.538;8.584;2023-07-08T05:40:51;22.05;54.07
66522;SHT31;53349;53.538;8.584;2023-07-08T05:43:17;22.37;53.38
66522;SHT31;53349;53.538;8.584;2023-07-08T05:45:43;22.45;53.02
66522;SHT31;53349;53.538;8.584;2023-07-08T05:48:09;22.84;52.63
66522;SHT31;53349;53.538;8.584;2023-07-08T05:50:35;23.27;51.82
66522;SHT31;53349;53.538;8.584;2023-07-08T05:53:01;23.42;50.99
66522;SHT31;53349;53.538;8.584;2023-07-08T05:55:27;23.65;50.64
66522;SHT31;53349;53.538;8.584;2023-07-08T05:57:53;23.87;49.94
66522;SHT31;53349;53.538;8.584;2023-07-08T06:00:18;24.06;49.47
66522;SHT31;53349;53.538;8.584;2023-07-08T06:02:44;24.26;49.14
66522;SHT31;53349;53.538;8.584;2023-07-08T06:05:09;24.40;48.60
66522;SHT31;53349;53.538;8.584;2023-07-08T06:07:35;24.44;48.39
66522;SHT31;53349;53.538;8.584;2023-07-08T06:10:00;24.58;48.19
66522;SHT31;53349;53.538;8.584;2023-07-08T06:12:26;24.88;47.78
66522;SHT31;53349;53.538;8.584;2023-07-08T06:14:52;25.01;46.94
66522;SHT31;53349;53.538;8.584;2023-07-08T06:17:17;25.15;46.54
66522;SHT31;53349;53.538;8.584;2023-07-08T06:19:44;25.20;46.56
66522;SHT31;53349;53.538;8.584;2023-07-08T06:22:11;25.56;45.87
66522;SHT31;53349;53.538;8.584;2023-07-08T06:24:40;25.49;45.33
66522;SHT31;53349;53.538;8.584;2023-07-08T06:27:09;25.54;45.04
66522;SHT31;53349;53.538;8.584;2023-07-08T06:29:35;25.45;45.06
66522;SHT31;53349;53.538;8.584;2023-07-08T06:32:02;25.54;44.83
66522;SHT31;53349;53.538;8.584;2023-07-08T06:34:27;25.74;44.58
66522;SHT31;53349;53.538;8.584;2023-07-08T06:36:52;26.04;44.08
66522;SHT31;53349;53.538;8.584;2023-07-08T06:39:18;26.38;43.61
66522;SHT31;53349;53.538;8.584;2023-07-08T06:41:46;26.52;43.37
66522;SHT31;53349;53.538;8.584;2023-07-08T06:44:11;26.69;43.04
66522;SHT31;53349;53.538;8.584;2023-07-08T06:46:38;26.80;42.66
66522;SHT31;53349;53.538;8.584;2023-07-08T06:49:03;26.78;42.80
66522;SHT31;53349;53.538;8.584;2023-07-08T06:51:29;26.86;42.91
66522;SHT31;53349;53.538;8.584;2023-07-08T06:53:54;26.93;42.69
66522;SHT31;53349;53.538;8.584;2023-07-08T06:56:21;27.02;42.64
66522;SHT31;53349;53.538;8.584;2023-07-08T06:58:58;27.53;42.02
66522;SHT31;53349;53.538;8.584;2023-07-08T07:01:23;27.98;41.19
66522;SHT31;53349;53.538;8.584;2023-07-08T07:03:49;27.94;41.13
66522;SHT31;53349;53.538;8.584;2023-07-08T07:06:15;27.85;41.09
66522;SHT31;53349;53.538;8.584;2023-07-08T07:08:40;27.71;41.35
66522;SHT31;53349;53.538;8.584;2023-07-08T07:11:06;27.74;41.23
66522;SHT31;53349;53.538;8.584;2023-07-08T07:13:31;27.81;41.18
66522;SHT31;53349;53.538;8.584;2023-07-08T07:15:56;28.02;41.34
66522;SHT31;53349;53.538;8.584;2023-07-08T07:18:23;28.15;40.63
66522;SHT31;53349;53.538;8.584;2023-07-08T07:20:50;28.15;40.91
66522;SHT31;53349;53.538;8.584;2023-07-08T07:23:16;28.47;40.55
66522;SHT31;53349;53.538;8.584;2023-07-08T07:25:42;28.45;40.21
66522;SHT31;53349;53.538;8.584;2023-07-08T07:28:07;28.61;40.09
66522;SHT31;53349;53.538;8.584;2023-07-08T07:30:33;28.90;39.77
66522;SHT31;53349;53.538;8.584;2023-07-08T07:33:01;28.80;39.37
66522;SHT31;53349;53.538;8.584;2023-07-08T07:35:27;28.57;39.49
66522;SHT31;53349;53.538;8.584;2023-07-08T07:37:52;28.47;39.36
66522;SHT31;53349;53.538;8.584;2023-07-08T07:40:18;28.40;39.55
66522;SHT31;53349;53.538;8.584;2023-07-08T07:42:46;28.42;39.41
66522;SHT31;53349;53.538;8.584;2023-07-08T07:45:13;28.53;39.72
66522;SHT31;53349;53.538;8.584;2023-07-08T07:47:38;28.52;40.30
66522;SHT31;53349;53.538;8.584;2023-07-08T07:50:05;28.43;40.38
66522;SHT31;53349;53.538;8.584;2023-07-08T07:52:31;28.35;40.85
66522;SHT31;53349;53.538;8.584;2023-07-08T07:54:58;28.42;40.99
66522;SHT31;53349;53.538;8.584;2023-07-08T07:57:25;28.29;41.03
66522;SHT31;53349;53.538;8.584;2023-07-08T07:59:52;28.09;41.51
66522;SHT31;53349;53.538;8.584;2023-07-08T08:02:18;28.04;41.58
66522;SHT31;53349;53.538;8.584;2023-07-08T08:04:44;28.10;41.67
66522;SHT31;53349;53.538;8.584;2023-07-08T08:07:09;27.99;41.83
66522;SHT31;53349;53.538;8.584;2023-07-08T08:09:37;27.74;42.00
66522;SHT31;53349;53.538;8.584;2023-07-08T08:12:04;27.58;42.28
66522;SHT31;53349;53.538;8.584;2023-07-08T08:14:34;27.57;42.89
66522;SHT31;53349;53.538;8.584;2023-07-08T08:16:59;27.41;43.50
66522;SHT31;53349;53.538;8.584;2023-07-08T08:19:25;27.30;43.47
66522;SHT31;53349;53.538;8.584;2023-07-08T08:21:50;27.23;43.88
66522;SHT31;53349;53.538;8.584;2023-07-08T08:24:16;27.40;43.64
66522;SHT31;53349;53.538;8.584;2023-07-08T08:26:47;27.26;44.83
66522;SHT31;53349;53.538;8.584;2023-07-08T08:29:12;27.40;44.02
66522;SHT31;53349;53.538;8.584;2023-07-08T08:31:40;27.40;44.25
66522;SHT31;53349;53.538;8.584;2023-07-08T08:34:05;27.50;43.57
66522;SHT31;53349;53.538;8.584;2023-07-08T08:36:30;27.64;44.15
66522;SHT31;53349;53.538;8.584;2023-07-08T08:38:56;27.72;44.23
66522;SHT31;53349;53.538;8.584;2023-07-08T08:41:33;27.81;42.88
66522;SHT31;53349;53.538;8.584;2023-07-08T08:44:01;27.88;42.29
66522;SHT31;53349;53.538;8.584;2023-07-08T08:46:51;27.96;41.22
66522;SHT31;53349;53.538;8.584;2023-07-08T08:49:42;28.20;41.93
66522;SHT31;53349;53.538;8.584;2023-07-08T08:52:08;28.31;41.40
66522;SHT31;53349;53.538;8.584;2023-07-08T08:54:34;28.52;42.66
66522;SHT31;53349;53.538;8.584;2023-07-08T09:02:38;28.90;40.81
66522;SHT31;53349;53.538;8.584;2023-07-08T09:05:07;29.07;40.68
66522;SHT31;53349;53.538;8.584;2023-07-08T09:10:21;29.12;39.68
66522;SHT31;53349;53.538;8.584;2023-07-08T09:12:51;29.41;39.81
66522;SHT31;53349;53.538;8.584;2023-07-08T09:15:18;29.51;39.68
66522;SHT31;53349;53.538;8.584;2023-07-08T09:17:44;29.65;39.12
66522;SHT31;53349;53.538;8.584;2023-07-08T09:20:27;29.80;39.09
66522;SHT31;53349;53.538;8.584;2023-07-08T09:23:03;29.92;38.96
66522;SHT31;53349;53.538;8.584;2023-07-08T09:28:01;30.06;38.21
66522;SHT31;53349;53.538;8.584;2023-07-08T09:30:27;30.23;38.15
66522;SHT31;53349;53.538;8.584;2023-07-08T09:32:54;30.37;38.25
66522;SHT31;53349;53.538;8.584;2023-07-08T09:35:25;30.63;38.45
66522;SHT31;53349;53.538;8.584;2023-07-08T09:37:53;30.79;38.50
66522;SHT31;53349;53.538;8.584;2023-07-08T09:40:33;31.00;37.64
66522;SHT31;53349;53.538;8.584;2023-07-08T09:43:20;30.96;37.81
66522;SHT31;53349;53.538;8.584;2023-07-08T09:45:48;30.74;38.02
66522;SHT31;53349;53.538;8.584;2023-07-08T09:48:17;30.63;37.56
66522;SHT31;53349;53.538;8.584;2023-07-08T09:50:48;30.53;38.56
66522;SHT31;53349;53.538;8.584;2023-07-08T09:53:14;30.71;38.33
66522;SHT31;53349;53.538;8.584;2023-07-08T09:55:41;30.68;38.10
66522;SHT31;53349;53.538;8.584;2023-07-08T09:58:11;30.76;38.02
66522;SHT31;53349;53.538;8.584;2023-07-08T10:00:40;30.78;37.63
66522;SHT31;53349;53.538;8.584;2023-07-08T10:03:15;30.78;38.05
66522;SHT31;53349;53.538;8.584;2023-07-08T10:05:43;30.78;38.08
66522;SHT31;53349;53.538;8.584;2023-07-08T10:08:19;30.89;37.93
66522;SHT31;53349;53.538;8.584;2023-07-08T10:10:55;31.00;37.26
66522;SHT31;53349;53.538;8.584;2023-07-08T10:13:42;31.02;37.47
66522;SHT31;53349;53.538;8.584;2023-07-08T10:16:23;30.79;37.32
66522;SHT31;53349;53.538;8.584;2023-07-08T10:18:49;30.74;37.44
66522;SHT31;53349;53.538;8.584;2023-07-08T10:24:55;30.74;37.44
66522;SHT31;53349;53.538;8.584;2023-07-08T10:28:01;30.75;37.64
66522;SHT31;53349;53.538;8.584;2023-07-08T10:30:24;30.91;38.05
66522;SHT31;53349;53.538;8.584;2023-07-08T10:35:50;31.27;36.81
66522;SHT31;53349;53.538;8.584;2023-07-08T10:39:01;31.40;36.53
66522;SHT31;53349;53.538;8.584;2023-07-08T10:44:30;31.09;37.17
66522;SHT31;53349;53.538;8.584;2023-07-08T10:55:47;31.02;36.92
66522;SHT31;53349;53.538;8.584;2023-07-08T11:01:09;31.16;37.22
66522;SHT31;53349;53.538;8.584;2023-07-08T11:08:57;31.27;37.18
66522;SHT31;53349;53.538;8.584;2023-07-08T11:11:32;31.27;37.35
66522;SHT31;53349;53.538;8.584;2023-07-08T11:14:06;31.27;37.52
66522;SHT31;53349;53.538;8.584;2023-07-08T11:16:43;31.39;37.44
66522;SHT31;53349;53.538;8.584;2023-07-08T11:19:20;31.12;37.14
66522;SHT31;53349;53.538;8.584;2023-07-08T11:21:53;31.09;37.59
66522;SHT31;53349;53.538;8.584;2023-07-08T11:24:34;31.12;37.51
66522;SHT31;53349;53.538;8.584;2023-07-08T11:27:05;31.26;36.51
66522;SHT31;53349;53.538;8.584;2023-07-08T11:29:48;31.29;36.87
66522;SHT31;53349;53.538;8.584;2023-07-08T11:32:16;31.26;36.93
66522;SHT31;53349;53.538;8.584;2023-07-08T11:34:44;31.27;37.13
66522;SHT31;53349;53.538;8.584;2023-07-08T11:37:13;31.18;33.84
66522;SHT31;53349;53.538;8.584;2023-07-08T11:39:42;31.23;34.40
66522;SHT31;53349;53.538;8.584;2023-07-08T11:42:18;31.18;35.08
66522;SHT31;53349;53.538;8.584;2023-07-08T11:44:51;31.11;35.44
66522;SHT31;53349;53.538;8.584;2023-07-08T11:49:58;31.00;36.45
66522;SHT31;53349;53.538;8.584;2023-07-08T11:52:24;31.02;36.27
66522;SHT31;53349;53.538;8.584;2023-07-08T11:54:57;31.03;37.17
66522;SHT31;53349;53.538;8.584;2023-07-08T11:57:29;31.03;36.30
66522;SHT31;53349;53.538;8.584;2023-07-08T12:00:17;30.99;35.50
66522;SHT31;53349;53.538;8.584;2023-07-08T12:02:56;30.88;35.58
66522;SHT31;53349;53.538;8.584;2023-07-08T12:05:36;30.65;36.42
66522;SHT31;53349;53.538;8.584;2023-07-08T12:08:12;30.60;35.39
66522;SHT31;53349;53.538;8.584;2023-07-08T12:10:39;30.57;34.61
66522;SHT31;53349;53.538;8.584;2023-07-08T12:13:14;30.57;34.93
66522;SHT31;53349;53.538;8.584;2023-07-08T12:15:41;30.57;35.30
66522;SHT31;53349;53.538;8.584;2023-07-08T12:18:21;30.58;35.36
66522;SHT31;53349;53.538;8.584;2023-07-08T12:20:58;30.54;35.17
66522;SHT31;53349;53.538;8.584;2023-07-08T12:23:26;30.31;35.33
66522;SHT31;53349;53.538;8.584;2023-07-08T12:25:53;30.30;35.49
66522;SHT31;53349;53.538;8.584;2023-07-08T12:28:22;30.24;36.01
66522;SHT31;53349;53.538;8.584;2023-07-08T12:30:48;30.33;36.25
66522;SHT31;53349;53.538;8.584;2023-07-08T12:33:28;30.33;35.99
66522;SHT31;53349;53.538;8.584;2023-07-08T12:35:56;30.23;35.83
66522;SHT31;53349;53.538;8.584;2023-07-08T12:38:31;30.26;35.96
66522;SHT31;53349;53.538;8.584;2023-07-08T12:41:00;30.21;36.29
66522;SHT31;53349;53.538;8.584;2023-07-08T12:43:26;30.10;36.19
66522;SHT31;53349;53.538;8.584;2023-07-08T12:45:52;29.99;36.50
66522;SHT31;53349;53.538;8.584;2023-07-08T12:48:17;29.93;36.65
66522;SHT31;53349;53.538;8.584;2023-07-08T12:50:43;29.92;36.52
66522;SHT31;53349;53.538;8.584;2023-07-08T12:53:11;29.92;36.74
66522;SHT31;53349;53.538;8.584;2023-07-08T12:55:38;29.90;36.86
66522;SHT31;53349;53.538;8.584;2023-07-08T12:58:05;29.90;37.36
66522;SHT31;53349;53.538;8.584;2023-07-08T13:00:36;29.89;37.50
66522;SHT31;53349;53.538;8.584;2023-07-08T13:03:15;29.92;37.84
66522;SHT31;53349;53.538;8.584;2023-07-08T13:05:43;29.86;36.99
66522;SHT31;53349;53.538;8.584;2023-07-08T13:08:13;29.85;37.64
66522;SHT31;53349;53.538;8.584;2023-07-08T13:10:40;29.79;36.80
66522;SHT31;53349;53.538;8.584;2023-07-08T13:13:11;29.79;37.12
66522;SHT31;53349;53.538;8.584;2023-07-08T13:15:40;29.83;37.00
66522;SHT31;53349;53.538;8.584;2023-07-08T13:18:17;29.80;37.35
66522;SHT31;53349;53.538;8.584;2023-07-08T13:20:53;29.79;37.19
66522;SHT31;53349;53.538;8.584;2023-07-08T13:23:19;29.80;37.20
66522;SHT31;53349;53.538;8.584;2023-07-08T13:25:47;29.79;36.71
66522;SHT31;53349;53.538;8.584;2023-07-08T13:28:22;29.77;37.04
66522;SHT31;53349;53.538;8.584;2023-07-08T13:30:56;29.80;37.06
66522;SHT31;53349;53.538;8.584;2023-07-08T13:33:23;29.83;37.29
66522;SHT31;53349;53.538;8.584;2023-07-08T13:35:51;29.83;37.38
66522;SHT31;53349;53.538;8.584;2023-07-08T13:38:21;29.79;37.66
66522;SHT31;53349;53.538;8.584;2023-07-08T13:40:54;29.80;38.37
66522;SHT31;53349;53.538;8.584;2023-07-08T13:43:25;29.80;38.04
66522;SHT31;53349;53.538;8.584;2023-07-08T13:45:51;29.82;38.26
66522;SHT31;53349;53.538;8.584;2023-07-08T13:48:33;29.77;38.10
66522;SHT31;53349;53.538;8.584;2023-07-08T13:51:17;29.73;37.32
66522;SHT31;53349;53.538;8.584;2023-07-08T13:53:52;29.75;36.82
66522;SHT31;53349;53.538;8.584;2023-07-08T13:56:30;29.66;37.55
66522;SHT31;53349;53.538;8.584;2023-07-08T13:59:03;29.63;38.33
66522;SHT31;53349;53.538;8.584;2023-07-08T14:01:32;29.69;39.21
66522;SHT31;53349;53.538;8.584;2023-07-08T14:03:58;29.72;39.42
66522;SHT31;53349;53.538;8.584;2023-07-08T14:06:26;29.76;39.14
66522;SHT31;53349;53.538;8.584;2023-07-08T14:08:55;29.77;38.11
66522;SHT31;53349;53.538;8.584;2023-07-08T14:11:21;29.80;38.23
66522;SHT31;53349;53.538;8.584;2023-07-08T14:13:47;29.80;38.29
66522;SHT31;53349;53.538;8.584;2023-07-08T14:16:28;29.83;38.50
66522;SHT31;53349;53.538;8.584;2023-07-08T14:18:58;29.77;38.24
66522;SHT31;53349;53.538;8.584;2023-07-08T14:21:25;29.75;37.30
66522;SHT31;53349;53.538;8.584;2023-07-08T14:23:52;29.77;37.49
66522;SHT31;53349;53.538;8.584;2023-07-08T14:26:17;29.77;37.88
66522;SHT31;53349;53.538;8.584;2023-07-08T14:28:42;29.77;37.63
66522;SHT31;53349;53.538;8.584;2023-07-08T14:31:12;29.77;37.33
66522;SHT31;53349;53.538;8.584;2023-07-08T14:33:39;29.80;37.32
66522;SHT31;53349;53.538;8.584;2023-07-08T14:36:10;29.73;37.68
66522;SHT31;53349;53.538;8.584;2023-07-08T14:38:35;29.72;37.85
66522;SHT31;53349;53.538;8.584;2023-07-08T14:41:02;29.79;38.07
66522;SHT31;53349;53.538;8.584;2023-07-08T14:43:28;29.80;38.47
66522;SHT31;53349;53.538;8.584;2023-07-08T14:45:57;29.80;37.90
66522;SHT31;53349;53.538;8.584;2023-07-08T14:48:27;29.85;38.26
66522;SHT31;53349;53.538;8.584;2023-07-08T14:50:53;29.85;38.13
66522;SHT31;53349;53.538;8.584;2023-07-08T14:53:19;29.79;37.91
66522;SHT31;53349;53.538;8.584;2023-07-08T14:55:46;29.87;37.71
66522;SHT31;53349;53.538;8.584;2023-07-08T15:00:50;29.86;38.34
66522;SHT31;53349;53.538;8.584;2023-07-08T15:03:16;29.86;38.03
66522;SHT31;53349;53.538;8.584;2023-07-08T15:05:43;29.87;38.60
66522;SHT31;53349;53.538;8.584;2023-07-08T15:08:08;29.90;38.57
66522;SHT31;53349;53.538;8.584;2023-07-08T15:10:36;29.89;38.64
66522;SHT31;53349;53.538;8.584;2023-07-08T15:13:02;29.96;38.93
66522;SHT31;53349;53.538;8.584;2023-07-08T15:15:33;29.90;38.36
66522;SHT31;53349;53.538;8.584;2023-07-08T15:17:59;29.93;39.36
66522;SHT31;53349;53.538;8.584;2023-07-08T15:20:26;29.95;38.28
66522;SHT31;53349;53.538;8.584;2023-07-08T15:22:51;29.97;38.53
66522;SHT31;53349;53.538;8.584;2023-07-08T15:25:18;29.92;39.05
66522;SHT31;53349;53.538;8.584;2023-07-08T15:27:54;29.90;39.23
66522;SHT31;53349;53.538;8.584;2023-07-08T15:30:26;29.85;38.42
66522;SHT31;53349;53.538;8.584;2023-07-08T15:32:56;29.85;38.54
66522;SHT31;53349;53.538;8.584;2023-07-08T15:35:27;29.85;38.54
66522;SHT31;53349;53.538;8.584;2023-07-08T15:37:54;29.87;38.62
66522;SHT31;53349;53.538;8.584;2023-07-08T15:40:21;29.86;39.08
66522;SHT31;53349;53.538;8.584;2023-07-08T15:42:50;29.82;39.19
66522;SHT31;53349;53.538;8.584;2023-07-08T15:45:29;29.80;39.29
66522;SHT31;53349;53.538;8.584;2023-07-08T15:48:00;29.77;39.06
66522;SHT31;53349;53.538;8.584;2023-07-08T15:50:27;29.77;39.32
66522;SHT31;53349;53.538;8.584;2023-07-08T15:52:54;29.82;38.95
66522;SHT31;53349;53.538;8.584;2023-07-08T15:55:41;29.82;39.63
66522;SHT31;53349;53.538;8.584;2023-07-08T15:58:12;29.79;40.34
66522;SHT31;53349;53.538;8.584;2023-07-08T16:00:40;29.80;40.14
66522;SHT31;53349;53.538;8.584;2023-07-08T16:03:11;29.79;39.58
66522;SHT31;53349;53.538;8.584;2023-07-08T16:05:38;29.76;39.88
66522;SHT31;53349;53.538;8.584;2023-07-08T16:08:04;29.70;39.57
66522;SHT31;53349;53.538;8.584;2023-07-08T16:10:31;29.73;39.83
66522;SHT31;53349;53.538;8.584;2023-07-08T16:12:57;29.75;40.01
66522;SHT31;53349;53.538;8.584;2023-07-08T16:15:32;29.75;39.95
66522;SHT31;53349;53.538;8.584;2023-07-08T16:18:01;29.73;39.79
66522;SHT31;53349;53.538;8.584;2023-07-08T16:20:28;29.72;39.83
66522;SHT31;53349;53.538;8.584;2023-07-08T16:22:55;29.70;39.97
66522;SHT31;53349;53.538;8.584;2023-07-08T16:25:30;29.63;39.66